sensor_id;sensor_type;location;lat;lon;timestamp;temperature;humidity
26053;DHT22;13826;51.186;4.450;2022-10-16T00:01:58;14.80;49.40
26053;DHT22;13826;51.186;4.450;2022-10-16T00:04:24;14.80;48.10
26053;DHT22;13826;51.186;4.450;2022-10-16T00:06:49;14.80;49.00
26053;DHT22;13826;51.186;4.450;2022-10-16T00:09:15;14.80;48.00
26053;DHT22;13826;51.186;4.450;2022-10-16T00:11:41;14.80;48.80
26053;DHT22;13826;51.186;4.450;2022-10-16T00:14:09;14.80;49.20
26053;DHT22;13826;51.186;4.450;2022-10-16T00:16:36;14.80;51.70
26053;DHT22;13826;51.186;4.450;2022-10-16T00:19:02;14.80;51.90
26053;DHT22;13826;51.186;4.450;2022-10-16T00:21:29;14.80;53.30
26053;DHT22;13826;51.186;4.450;2022-10-16T00:24:04;14.80;52.50
26053;DHT22;13826;51.186;4.450;2022-10-16T00:26:32;14.90;51.60
26053;DHT22;13826;51.186;4.450;2022-10-16T00:28:58;14.80;51.40
26053;DHT22;13826;51.186;4.450;2022-10-16T00:31:24;14.80;54.00
26053;DHT22;13826;51.186;4.450;2022-10-16T00:33:50;14.70;56.60
26053;DHT22;13826;51.186;4.450;2022-10-16T00:36:20;14.70;55.20
26053;DHT22;13826;51.186;4.450;2022-10-16T00:38:47;14.60;59.90
26053;DHT22;13826;51.186;4.450;2022-10-16T00:41:16;14.50;61.90
26053;DHT22;13826;51.186;4.450;2022-10-16T00:43:45;14.60;61.30
26053;DHT22;13826;51.186;4.450;2022-10-16T00:46:22;14.60;59.10
26053;DHT22;13826;51.186;4.450;2022-10-16T00:49:15;14.60;57.60
26053;DHT22;13826;51.186;4.450;2022-10-16T00:51:47;14.60;60.70
26053;DHT22;13826;51.186;4.450;2022-10-16T00:54:17;14.50;63.70
26053;DHT22;13826;51.186;4.450;2022-10-16T00:56:44;14.40;68.00
26053;DHT22;13826;51.186;4.450;2022-10-16T00:59:24;14.50;66.20
26053;DHT22;13826;51.186;4.450;2022-10-16T01:01:51;14.40;66.60
26053;DHT22;13826;51.186;4.450;2022-10-16T01:04:17;14.50;65.70
26053;DHT22;13826;51.186;4.450;2022-10-16T01:14:49;14.30;73.10
26053;DHT22;13826;51.186;4.450;2022-10-16T01:18:10;14.30;74.60
26053;DHT22;13826;51.186;4.450;2022-10-16T01:20:24;14.30;74.20
26053;DHT22;13826;51.186;4.450;2022-10-16T01:28:58;14.40;70.20
26053;DHT22;13826;51.186;4.450;2022-10-16T01:31:32;14.40;68.50
26053;DHT22;13826;51.186;4.450;2022-10-16T01:34:07;14.40;68.00
26053;DHT22;13826;51.186;4.450;2022-10-16T01:36:38;14.30;70.90
26053;DHT22;13826;51.186;4.450;2022-10-16T01:39:09;14.30;73.90
26053;DHT22;13826;51.186;4.450;2022-10-16T01:41:46;14.20;73.70
26053;DHT22;13826;51.186;4.450;2022-10-16T01:44:20;14.20;73.70
26053;DHT22;13826;51.186;4.450;2022-10-16T01:46:49;14.10;75.90
26053;DHT22;13826;51.186;4.450;2022-10-16T01:49:17;14.20;75.00
26053;DHT22;13826;51.186;4.450;2022-10-16T01:51:47;14.20;71.90
26053;DHT22;13826;51.186;4.450;2022-10-16T01:54:15;14.20;73.40
26053;DHT22;13826;51.186;4.450;2022-10-16T01:56:42;14.20;73.00
26053;DHT22;13826;51.186;4.450;2022-10-16T01:59:15;14.10;75.10
26053;DHT22;13826;51.186;4.450;2022-10-16T02:01:47;14.10;75.20
26053;DHT22;13826;51.186;4.450;2022-10-16T02:04:29;14.10;75.20
26053;DHT22;13826;51.186;4.450;2022-10-16T02:06:57;14.00;79.70
26053;DHT22;13826;51.186;4.450;2022-10-16T02:09:23;14.00;78.00
26053;DHT22;13826;51.186;4.450;2022-10-16T02:11:51;14.00;80.70
26053;DHT22;13826;51.186;4.450;2022-10-16T02:14:19;14.10;78.20
26053;DHT22;13826;51.186;4.450;2022-10-16T02:16:45;14.00;79.20
26053;DHT22;13826;51.186;4.450;2022-10-16T02:19:16;14.00;79.90
26053;DHT22;13826;51.186;4.450;2022-10-16T02:21:51;14.00;78.60
26053;DHT22;13826;51.186;4.450;2022-10-16T02:27:05;14.00;80.20
26053;DHT22;13826;51.186;4.450;2022-10-16T02:29:37;14.00;82.10
26053;DHT22;13826;51.186;4.450;2022-10-16T02:32:06;14.00;80.70
26053;DHT22;13826;51.186;4.450;2022-10-16T02:34:33;14.00;80.30
26053;DHT22;13826;51.186;4.450;2022-10-16T02:37:01;13.90;83.00
26053;DHT22;13826;51.186;4.450;2022-10-16T02:39:30;13.90;84.30
26053;DHT22;13826;51.186;4.450;2022-10-16T02:41:56;13.90;81.80
26053;DHT22;13826;51.186;4.450;2022-10-16T02:44:22;13.90;81.70
26053;DHT22;13826;51.186;4.450;2022-10-16T02:46:47;13.90;82.00
26053;DHT22;13826;51.186;4.450;2022-10-16T02:49:13;13.90;83.30
26053;DHT22;13826;51.186;4.450;2022-10-16T02:51:38;13.90;82.80
26053;DHT22;13826;51.186;4.450;2022-10-16T02:54:07;13.90;83.00
26053;DHT22;13826;51.186;4.450;2022-10-16T02:56:33;13.90;83.70
26053;DHT22;13826;51.186;4.450;2022-10-16T02:58:58;13.90;85.10
26053;DHT22;13826;51.186;4.450;2022-10-16T03:01:24;13.90;83.50
26053;DHT22;13826;51.186;4.450;2022-10-16T03:03:50;13.90;84.00
26053;DHT22;13826;51.186;4.450;2022-10-16T03:06:16;13.80;85.70
26053;DHT22;13826;51.186;4.450;2022-10-16T03:08:41;13.80;86.90
26053;DHT22;13826;51.186;4.450;2022-10-16T03:11:07;13.90;84.90
26053;DHT22;13826;51.186;4.450;2022-10-16T03:13:33;13.90;84.40
26053;DHT22;13826;51.186;4.450;2022-10-16T03:15:58;13.90;84.50
26053;DHT22;13826;51.186;4.450;2022-10-16T03:18:24;13.90;84.90
26053;DHT22;13826;51.186;4.450;2022-10-16T03:20:50;13.90;84.40
26053;DHT22;13826;51.186;4.450;2022-10-16T03:23:15;13.90;86.30
26053;DHT22;13826;51.186;4.450;2022-10-16T03:25:41;14.00;85.90
26053;DHT22;13826;51.186;4.450;2022-10-16T03:28:07;14.00;83.70
26053;DHT22;13826;51.186;4.450;2022-10-16T03:30:32;14.00;84.60
26053;DHT22;13826;51.186;4.450;2022-10-16T03:32:58;13.90;86.60
26053;DHT22;13826;51.186;4.450;2022-10-16T03:35:24;14.00;86.20
26053;DHT22;13826;51.186;4.450;2022-10-16T03:37:51;14.00;86.80
26053;DHT22;13826;51.186;4.450;2022-10-16T03:40:17;13.90;87.40
26053;DHT22;13826;51.186;4.450;2022-10-16T03:42:43;14.00;88.80
26053;DHT22;13826;51.186;4.450;2022-10-16T03:45:10;13.90;90.50
26053;DHT22;13826;51.186;4.450;2022-10-16T03:47:35;13.90;89.40
26053;DHT22;13826;51.186;4.450;2022-10-16T03:50:02;13.90;89.30
26053;DHT22;13826;51.186;4.450;2022-10-16T03:52:28;13.90;89.80
26053;DHT22;13826;51.186;4.450;2022-10-16T03:54:54;14.00;87.40
26053;DHT22;13826;51.186;4.450;2022-10-16T03:57:19;14.00;87.00
26053;DHT22;13826;51.186;4.450;2022-10-16T03:59:46;14.00;86.80
26053;DHT22;13826;51.186;4.450;2022-10-16T04:02:12;13.90;87.40
26053;DHT22;13826;51.186;4.450;2022-10-16T04:04:38;14.00;88.60
26053;DHT22;13826;51.186;4.450;2022-10-16T04:07:03;13.90;87.60
26053;DHT22;13826;51.186;4.450;2022-10-16T04:09:29;14.00;86.00
26053;DHT22;13826;51.186;4.450;2022-10-16T04:11:54;14.00;86.80
26053;DHT22;13826;51.186;4.450;2022-10-16T04:14:20;14.00;86.60
26053;DHT22;13826;51.186;4.450;2022-10-16T04:16:46;14.00;86.50
26053;DHT22;13826;51.186;4.450;2022-10-16T04:19:11;14.00;86.50
26053;DHT22;13826;51.186;4.450;2022-10-16T04:21:37;13.90;88.00
26053;DHT22;13826;51.186;4.450;2022-10-16T04:24:03;13.90;88.90
26053;DHT22;13826;51.186;4.450;2022-10-16T04:26:29;14.00;87.10
26053;DHT22;13826;51.186;4.450;2022-10-16T04:28:55;14.00;86.40
26053;DHT22;13826;51.186;4.450;2022-10-16T04:31:21;13.90;90.50
26053;DHT22;13826;51.186;4.450;2022-10-16T04:33:47;13.90;90.20
26053;DHT22;13826;51.186;4.450;2022-10-16T04:36:13;13.90;89.80
26053;DHT22;13826;51.186;4.450;2022-10-16T04:38:39;13.90;90.00
26053;DHT22;13826;51.186;4.450;2022-10-16T04:41:05;13.90;90.40
26053;DHT22;13826;51.186;4.450;2022-10-16T04:43:31;13.90;90.20
26053;DHT22;13826;51.186;4.450;2022-10-16T04:45:57;13.80;90.50
26053;DHT22;13826;51.186;4.450;2022-10-16T04:48:23;13.80;90.90
26053;DHT22;13826;51.186;4.450;2022-10-16T04:50:49;13.80;91.80
26053;DHT22;13826;51.186;4.450;2022-10-16T04:53:14;13.80;91.30
26053;DHT22;13826;51.186;4.450;2022-10-16T04:55:41;13.80;91.10
26053;DHT22;13826;51.186;4.450;2022-10-16T04:58:06;13.80;90.50
26053;DHT22;13826;51.186;4.450;2022-10-16T05:00:33;13.80;91.10
26053;DHT22;13826;51.186;4.450;2022-10-16T05:02:59;13.70;92.10
26053;DHT22;13826;51.186;4.450;2022-10-16T05:05:26;13.70;92.10
26053;DHT22;13826;51.186;4.450;2022-10-16T05:07:52;13.60;92.90
26053;DHT22;13826;51.186;4.450;2022-10-16T05:10:18;13.70;93.20
26053;DHT22;13826;51.186;4.450;2022-10-16T05:12:44;13.60;93.20
26053;DHT22;13826;51.186;4.450;2022-10-16T05:15:10;13.50;94.00
26053;DHT22;13826;51.186;4.450;2022-10-16T05:17:36;13.60;93.30
26053;DHT22;13826;51.186;4.450;2022-10-16T05:20:02;13.60;93.10
26053;DHT22;13826;51.186;4.450;2022-10-16T05:22:28;13.70;92.40
26053;DHT22;13826;51.186;4.450;2022-10-16T05:24:54;13.60;92.90
26053;DHT22;13826;51.186;4.450;2022-10-16T05:27:20;13.60;93.10
26053;DHT22;13826;51.186;4.450;2022-10-16T05:29:46;13.60;93.20
26053;DHT22;13826;51.186;4.450;2022-10-16T05:32:16;13.60;93.60
26053;DHT22;13826;51.186;4.450;2022-10-16T05:34:42;13.50;94.30
26053;DHT22;13826;51.186;4.450;2022-10-16T05:37:08;13.50;94.50
26053;DHT22;13826;51.186;4.450;2022-10-16T05:39:34;13.40;94.40
26053;DHT22;13826;51.186;4.450;2022-10-16T05:41:59;13.40;95.00
26053;DHT22;13826;51.186;4.450;2022-10-16T05:44:25;13.40;95.10
26053;DHT22;13826;51.186;4.450;2022-10-16T05:46:51;13.30;95.40
26053;DHT22;13826;51.186;4.450;2022-10-16T05:49:16;13.40;95.60
26053;DHT22;13826;51.186;4.450;2022-10-16T05:51:42;13.40;95.00
26053;DHT22;13826;51.186;4.450;2022-10-16T05:54:08;13.40;94.70
26053;DHT22;13826;51.186;4.450;2022-10-16T05:56:34;13.40;95.10
26053;DHT22;13826;51.186;4.450;2022-10-16T05:58:59;13.30;95.50
26053;DHT22;13826;51.186;4.450;2022-10-16T06:01:25;13.40;95.40
26053;DHT22;13826;51.186;4.450;2022-10-16T06:03:52;13.40;95.00
26053;DHT22;13826;51.186;4.450;2022-10-16T06:06:20;13.40;95.80
26053;DHT22;13826;51.186;4.450;2022-10-16T06:08:47;13.30;96.50
26053;DHT22;13826;51.186;4.450;2022-10-16T06:11:21;13.30;97.20
26053;DHT22;13826;51.186;4.450;2022-10-16T06:13:54;13.30;97.50
26053;DHT22;13826;51.186;4.450;2022-10-16T06:16:22;13.30;97.80
26053;DHT22;13826;51.186;4.450;2022-10-16T06:18:50;13.40;97.90
26053;DHT22;13826;51.186;4.450;2022-10-16T06:21:24;13.50;97.50
26053;DHT22;13826;51.186;4.450;2022-10-16T06:23:50;13.60;96.80
26053;DHT22;13826;51.186;4.450;2022-10-16T06:26:19;13.70;96.10
26053;DHT22;13826;51.186;4.450;2022-10-16T06:28:45;13.80;95.60
26053;DHT22;13826;51.186;4.450;2022-10-16T06:31:15;13.90;94.40
26053;DHT22;13826;51.186;4.450;2022-10-16T06:33:41;13.90;93.30
26053;DHT22;13826;51.186;4.450;2022-10-16T06:36:12;13.80;93.50
26053;DHT22;13826;51.186;4.450;2022-10-16T06:38:39;14.00;93.40
26053;DHT22;13826;51.186;4.450;2022-10-16T06:41:06;13.90;93.20
26053;DHT22;13826;51.186;4.450;2022-10-16T06:43:32;13.90;93.20
26053;DHT22;13826;51.186;4.450;2022-10-16T06:46:01;14.00;92.70
26053;DHT22;13826;51.186;4.450;2022-10-16T06:48:27;14.00;92.60
26053;DHT22;13826;51.186;4.450;2022-10-16T06:51:04;14.00;92.30
26053;DHT22;13826;51.186;4.450;2022-10-16T06:53:33;14.00;92.20
26053;DHT22;13826;51.186;4.450;2022-10-16T06:56:10;14.00;92.20
26053;DHT22;13826;51.186;4.450;2022-10-16T06:58:36;13.90;93.00
26053;DHT22;13826;51.186;4.450;2022-10-16T07:01:04;13.90;93.30
26053;DHT22;13826;51.186;4.450;2022-10-16T07:03:30;14.00;93.00
26053;DHT22;13826;51.186;4.450;2022-10-16T07:05:55;14.00;93.30
26053;DHT22;13826;51.186;4.450;2022-10-16T07:08:21;14.10;93.40
26053;DHT22;13826;51.186;4.450;2022-10-16T07:10:48;14.20;93.20
26053;DHT22;13826;51.186;4.450;2022-10-16T07:13:13;14.40;91.00
26053;DHT22;13826;51.186;4.450;2022-10-16T07:15:40;14.50;90.00
26053;DHT22;13826;51.186;4.450;2022-10-16T07:18:06;14.60;86.40
26053;DHT22;13826;51.186;4.450;2022-10-16T07:20:32;14.70;82.40
26053;DHT22;13826;51.186;4.450;2022-10-16T07:22:58;14.70;83.40
26053;DHT22;13826;51.186;4.450;2022-10-16T07:25:24;14.90;83.70
26053;DHT22;13826;51.186;4.450;2022-10-16T07:27:49;15.70;68.20
26053;DHT22;13826;51.186;4.450;2022-10-16T07:30:15;17.70;26.80
26053;DHT22;13826;51.186;4.450;2022-10-16T07:32:41;19.50;1.00
26053;DHT22;13826;51.186;4.450;2022-10-16T07:35:07;20.50;1.00
26053;DHT22;13826;51.186;4.450;2022-10-16T07:37:33;21.60;1.00
26053;DHT22;13826;51.186;4.450;2022-10-16T07:39:58;22.50;1.00
26053;DHT22;13826;51.186;4.450;2022-10-16T07:42:24;22.50;99.90
26053;DHT22;13826;51.186;4.450;2022-10-16T07:44:50;22.90;99.90
26053;DHT22;13826;51.186;4.450;2022-10-16T07:47:15;22.50;99.90
26053;DHT22;13826;51.186;4.450;2022-10-16T07:49:41;21.70;1.00
26053;DHT22;13826;51.186;4.450;2022-10-16T07:52:07;20.80;1.00
26053;DHT22;13826;51.186;4.450;2022-10-16T07:54:32;20.00;1.00
26053;DHT22;13826;51.186;4.450;2022-10-16T07:56:58;19.10;1.00
26053;DHT22;13826;51.186;4.450;2022-10-16T07:59:24;18.60;1.00
26053;DHT22;13826;51.186;4.450;2022-10-16T08:01:49;18.60;1.00
26053;DHT22;13826;51.186;4.450;2022-10-16T08:04:15;19.30;1.00
26053;DHT22;13826;51.186;4.450;2022-10-16T08:06:41;21.10;1.00
26053;DHT22;13826;51.186;4.450;2022-10-16T08:09:07;23.00;99.90
26053;DHT22;13826;51.186;4.450;2022-10-16T08:11:34;24.00;99.90
26053;DHT22;13826;51.186;4.450;2022-10-16T08:14:00;24.90;1.00
26053;DHT22;13826;51.186;4.450;2022-10-16T08:16:26;25.70;99.90
26053;DHT22;13826;51.186;4.450;2022-10-16T08:18:51;26.00;1.00
26053;DHT22;13826;51.186;4.450;2022-10-16T08:21:19;26.70;99.90
26053;DHT22;13826;51.186;4.450;2022-10-16T08:23:45;27.60;1.00
26053;DHT22;13826;51.186;4.450;2022-10-16T08:26:11;27.00;99.90
26053;DHT22;13826;51.186;4.450;2022-10-16T08:28:38;27.60;1.00
26053;DHT22;13826;51.186;4.450;2022-10-16T08:31:15;27.50;99.90
26053;DHT22;13826;51.186;4.450;2022-10-16T08:33:43;28.70;99.90
26053;DHT22;13826;51.186;4.450;2022-10-16T08:36:10;29.60;1.00
26053;DHT22;13826;51.186;4.450;2022-10-16T08:38:36;30.20;1.00
26053;DHT22;13826;51.186;4.450;2022-10-16T08:49:16;30.90;99.90
26053;DHT22;13826;51.186;4.450;2022-10-16T08:51:42;32.20;99.90
26053;DHT22;13826;51.186;4.450;2022-10-16T08:54:29;32.50;99.90
26053;DHT22;13826;51.186;4.450;2022-10-16T08:56:57;33.10;99.90
26053;DHT22;13826;51.186;4.450;2022-10-16T08:59:26;32.10;99.90
26053;DHT22;13826;51.186;4.450;2022-10-16T09:01:52;31.40;99.90
26053;DHT22;13826;51.186;4.450;2022-10-16T09:16:15;32.90;99.90
26053;DHT22;13826;51.186;4.450;2022-10-16T09:21:25;32.50;99.90
26053;DHT22;13826;51.186;4.450;2022-10-16T09:23:52;33.30;97.30
26053;DHT22;13826;51.186;4.450;2022-10-16T09:26:19;32.30;73.40
26053;DHT22;13826;51.186;4.450;2022-10-16T09:28:47;31.80;92.40
26053;DHT22;13826;51.186;4.450;2022-10-16T09:31:18;31.10;99.90
26053;DHT22;13826;51.186;4.450;2022-10-16T09:33:47;30.90;99.90
26053;DHT22;13826;51.186;4.450;2022-10-16T09:36:14;31.70;99.90
26053;DHT22;13826;51.186;4.450;2022-10-16T09:38:40;32.80;99.90
26053;DHT22;13826;51.186;4.450;2022-10-16T09:41:33;32.40;82.90
26053;DHT22;13826;51.186;4.450;2022-10-16T09:44:01;32.00;89.50
26053;DHT22;13826;51.186;4.450;2022-10-16T09:46:35;32.00;94.50
26053;DHT22;13826;51.186;4.450;2022-10-16T09:49:23;32.30;90.70
26053;DHT22;13826;51.186;4.450;2022-10-16T09:51:50;31.30;99.90
26053;DHT22;13826;51.186;4.450;2022-10-16T09:54:21;31.30;99.90
26053;DHT22;13826;51.186;4.450;2022-10-16T09:56:47;31.70;99.90
26053;DHT22;13826;51.186;4.450;2022-10-16T09:59:19;32.50;99.90
26053;DHT22;13826;51.186;4.450;2022-10-16T10:04:17;34.20;74.40
26053;DHT22;13826;51.186;4.450;2022-10-16T10:06:53;34.20;47.80
26053;DHT22;13826;51.186;4.450;2022-10-16T10:09:37;34.70;34.60
26053;DHT22;13826;51.186;4.450;2022-10-16T10:12:05;34.40;26.00
26053;DHT22;13826;51.186;4.450;2022-10-16T10:14:50;35.40;17.90
26053;DHT22;13826;51.186;4.450;2022-10-16T10:17:27;33.30;2.50
26053;DHT22;13826;51.186;4.450;2022-10-16T10:19:55;32.80;9.80
26053;DHT22;13826;51.186;4.450;2022-10-16T10:22:40;32.30;20.30
26053;DHT22;13826;51.186;4.450;2022-10-16T10:33:09;31.80;88.50
26053;DHT22;13826;51.186;4.450;2022-10-16T10:35:44;30.80;96.50
26053;DHT22;13826;51.186;4.450;2022-10-16T10:38:37;29.00;99.90
26053;DHT22;13826;51.186;4.450;2022-10-16T10:46:36;26.50;99.90
26053;DHT22;13826;51.186;4.450;2022-10-16T11:00:13;30.90;99.90
26053;DHT22;13826;51.186;4.450;2022-10-16T11:03:21;32.60;99.90
26053;DHT22;13826;51.186;4.450;2022-10-16T11:06:04;32.90;99.90
26053;DHT22;13826;51.186;4.450;2022-10-16T11:08:55;33.30;92.40
26053;DHT22;13826;51.186;4.450;2022-10-16T11:11:27;33.20;56.40
26053;DHT22;13826;51.186;4.450;2022-10-16T11:16:29;32.90;34.10
26053;DHT22;13826;51.186;4.450;2022-10-16T11:19:10;32.80;29.40
26053;DHT22;13826;51.186;4.450;2022-10-16T11:21:44;32.10;31.10
26053;DHT22;13826;51.186;4.450;2022-10-16T11:24:32;32.20;31.40
26053;DHT22;13826;51.186;4.450;2022-10-16T11:27:04;30.90;33.40
26053;DHT22;13826;51.186;4.450;2022-10-16T11:29:35;30.80;72.60
26053;DHT22;13826;51.186;4.450;2022-10-16T11:32:20;31.00;83.00
26053;DHT22;13826;51.186;4.450;2022-10-16T11:34:57;31.10;50.50
26053;DHT22;13826;51.186;4.450;2022-10-16T11:37:52;30.60;45.50
26053;DHT22;13826;51.186;4.450;2022-10-16T11:40:31;31.00;62.50
26053;DHT22;13826;51.186;4.450;2022-10-16T11:43:27;31.20;49.60
26053;DHT22;13826;51.186;4.450;2022-10-16T11:45:56;30.70;47.10
26053;DHT22;13826;51.186;4.450;2022-10-16T11:54:24;28.60;1.00
26053;DHT22;13826;51.186;4.450;2022-10-16T11:56:54;29.70;99.90
26053;DHT22;13826;51.186;4.450;2022-10-16T12:04:53;29.90;99.90
26053;DHT22;13826;51.186;4.450;2022-10-16T12:07:31;28.80;99.90
26053;DHT22;13826;51.186;4.450;2022-10-16T12:09:57;27.90;99.90
26053;DHT22;13826;51.186;4.450;2022-10-16T12:12:49;27.20;99.90
26053;DHT22;13826;51.186;4.450;2022-10-16T12:15:30;26.10;1.00
26053;DHT22;13826;51.186;4.450;2022-10-16T12:17:56;25.70;99.90
26053;DHT22;13826;51.186;4.450;2022-10-16T12:20:32;25.30;58.00
26053;DHT22;13826;51.186;4.450;2022-10-16T12:23:19;24.60;1.00
26053;DHT22;13826;51.186;4.450;2022-10-16T12:25:54;24.00;1.00
26053;DHT22;13826;51.186;4.450;2022-10-16T12:28:25;23.50;1.00
26053;DHT22;13826;51.186;4.450;2022-10-16T12:31:05;23.40;99.90
26053;DHT22;13826;51.186;4.450;2022-10-16T12:33:34;23.20;99.90
26053;DHT22;13826;51.186;4.450;2022-10-16T12:36:16;23.10;1.00
26053;DHT22;13826;51.186;4.450;2022-10-16T12:38:52;22.90;99.90
26053;DHT22;13826;51.186;4.450;2022-10-16T12:41:32;22.70;75.10
26053;DHT22;13826;51.186;4.450;2022-10-16T12:43:59;22.80;56.50
26053;DHT22;13826;51.186;4.450;2022-10-16T12:46:35;22.70;99.90
26053;DHT22;13826;51.186;4.450;2022-10-16T12:51:42;23.00;1.00
26053;DHT22;13826;51.186;4.450;2022-10-16T12:54:20;23.00;99.90
26053;DHT22;13826;51.186;4.450;2022-10-16T13:05:11;23.00;1.00
26053;DHT22;13826;51.186;4.450;2022-10-16T13:07:51;22.90;99.90
26053;DHT22;13826;51.186;4.450;2022-10-16T13:10:40;22.70;1.00
26053;DHT22;13826;51.186;4.450;2022-10-16T13:27:08;22.80;99.90
26053;DHT22;13826;51.186;4.450;2022-10-16T13:29:38;22.90;1.00
26053;DHT22;13826;51.186;4.450;2022-10-16T13:32:11;22.90;99.90
26053;DHT22;13826;51.186;4.450;2022-10-16T13:34:48;22.90;1.00
26053;DHT22;13826;51.186;4.450;2022-10-16T13:37:23;23.10;1.00
26053;DHT22;13826;51.186;4.450;2022-10-16T13:39:49;23.30;60.90
26053;DHT22;13826;51.186;4.450;2022-10-16T13:42:27;23.20;99.90
26053;DHT22;13826;51.186;4.450;2022-10-16T13:44:54;23.00;99.90
26053;DHT22;13826;51.186;4.450;2022-10-16T13:47:26;23.00;99.90
26053;DHT22;13826;51.186;4.450;2022-10-16T13:50:12;22.80;99.90
26053;DHT22;13826;51.186;4.450;2022-10-16T13:52:38;22.60;99.90
26053;DHT22;13826;51.186;4.450;2022-10-16T13:55:24;22.40;99.90
26053;DHT22;13826;51.186;4.450;2022-10-16T13:57:50;22.30;63.20
26053;DHT22;13826;51.186;4.450;2022-10-16T14:02:55;22.30;1.00
26053;DHT22;13826;51.186;4.450;2022-10-16T14:05:23;22.30;99.90
26053;DHT22;13826;51.186;4.450;2022-10-16T14:07:50;22.20;99.90
26053;DHT22;13826;51.186;4.450;2022-10-16T14:10:25;22.30;99.90
26053;DHT22;13826;51.186;4.450;2022-10-16T14:13:04;22.00;99.90
26053;DHT22;13826;51.186;4.450;2022-10-16T14:15:31;22.10;99.90
26053;DHT22;13826;51.186;4.450;2022-10-16T14:17:58;22.20;99.90
26053;DHT22;13826;51.186;4.450;2022-10-16T14:20:27;22.10;99.90
26053;DHT22;13826;51.186;4.450;2022-10-16T14:23:19;22.10;99.90
26053;DHT22;13826;51.186;4.450;2022-10-16T14:25:45;22.00;99.90
26053;DHT22;13826;51.186;4.450;2022-10-16T14:28:17;21.90;99.90
26053;DHT22;13826;51.186;4.450;2022-10-16T14:30:54;21.90;99.90
26053;DHT22;13826;51.186;4.450;2022-10-16T14:33:25;21.70;99.90
26053;DHT22;13826;51.186;4.450;2022-10-16T14:36:11;21.70;99.90
26053;DHT22;13826;51.186;4.450;2022-10-16T14:38:42;21.40;1.00
26053;DHT22;13826;51.186;4.450;2022-10-16T14:41:09;21.50;1.00
26053;DHT22;13826;51.186;4.450;2022-10-16T14:43:40;21.50;1.00
26053;DHT22;13826;51.186;4.450;2022-10-16T14:46:13;21.50;1.00
26053;DHT22;13826;51.186;4.450;2022-10-16T14:48:44;21.10;1.00
26053;DHT22;13826;51.186;4.450;2022-10-16T14:51:14;21.20;1.00
26053;DHT22;13826;51.186;4.450;2022-10-16T14:53:40;21.10;1.00
26053;DHT22;13826;51.186;4.450;2022-10-16T14:56:08;21.00;1.00
26053;DHT22;13826;51.186;4.450;2022-10-16T14:58:35;20.90;1.00
26053;DHT22;13826;51.186;4.450;2022-10-16T15:01:00;20.70;1.00
26053;DHT22;13826;51.186;4.450;2022-10-16T15:03:26;20.60;1.00
26053;DHT22;13826;51.186;4.450;2022-10-16T15:05:52;20.70;1.00
26053;DHT22;13826;51.186;4.450;2022-10-16T15:08:17;20.60;1.00
26053;DHT22;13826;51.186;4.450;2022-10-16T15:10:44;20.50;1.00
26053;DHT22;13826;51.186;4.450;2022-10-16T15:13:13;20.50;1.00
26053;DHT22;13826;51.186;4.450;2022-10-16T15:15:45;20.60;1.00
26053;DHT22;13826;51.186;4.450;2022-10-16T15:18:11;20.60;1.00
26053;DHT22;13826;51.186;4.450;2022-10-16T15:20:40;20.40;1.00
26053;DHT22;13826;51.186;4.450;2022-10-16T15:23:17;20.50;1.00
26053;DHT22;13826;51.186;4.450;2022-10-16T15:25:47;20.50;1.00
26053;DHT22;13826;51.186;4.450;2022-10-16T15:28:14;20.40;1.00
26053;DHT22;13826;51.186;4.450;2022-10-16T15:30:40;20.60;1.00
26053;DHT22;13826;51.186;4.450;2022-10-16T15:33:15;20.70;1.00
26053;DHT22;13826;51.186;4.450;2022-10-16T15:35:41;20.60;1.00
26053;DHT22;13826;51.186;4.450;2022-10-16T15:38:11;20.70;1.00
26053;DHT22;13826;51.186;4.450;2022-10-16T15:40:37;20.70;1.00
26053;DHT22;13826;51.186;4.450;2022-10-16T15:43:03;20.40;1.00
26053;DHT22;13826;51.186;4.450;2022-10-16T15:45:29;20.50;1.00
26053;DHT22;13826;51.186;4.450;2022-10-16T15:47:55;20.50;1.00
26053;DHT22;13826;51.186;4.450;2022-10-16T15:50:20;20.30;1.00
26053;DHT22;13826;51.186;4.450;2022-10-16T15:52:46;20.20;1.00
26053;DHT22;13826;51.186;4.450;2022-10-16T15:55:13;20.10;1.00
26053;DHT22;13826;51.186;4.450;2022-10-16T15:57:39;20.30;1.00
26053;DHT22;13826;51.186;4.450;2022-10-16T16:00:16;20.00;1.00
26053;DHT22;13826;51.186;4.450;2022-10-16T16:02:43;19.80;1.00
26053;DHT22;13826;51.186;4.450;2022-10-16T16:05:10;19.50;1.00
26053;DHT22;13826;51.186;4.450;2022-10-16T16:07:37;19.50;1.00
26053;DHT22;13826;51.186;4.450;2022-10-16T16:10:05;19.40;1.00
26053;DHT22;13826;51.186;4.450;2022-10-16T16:12:31;19.40;1.00
26053;DHT22;13826;51.186;4.450;2022-10-16T16:14:57;19.40;1.00
26053;DHT22;13826;51.186;4.450;2022-10-16T16:17:22;19.30;1.00
26053;DHT22;13826;51.186;4.450;2022-10-16T16:19:50;19.30;1.00
26053;DHT22;13826;51.186;4.450;2022-10-16T16:22:16;19.10;1.00
26053;DHT22;13826;51.186;4.450;2022-10-16T16:24:41;18.90;1.00
26053;DHT22;13826;51.186;4.450;2022-10-16T16:27:07;18.90;1.00
26053;DHT22;13826;51.186;4.450;2022-10-16T16:29:33;18.90;1.00
26053;DHT22;13826;51.186;4.450;2022-10-16T16:32:00;18.80;1.00
26053;DHT22;13826;51.186;4.450;2022-10-16T16:34:27;18.70;1.00
26053;DHT22;13826;51.186;4.450;2022-10-16T16:36:54;18.60;1.00
26053;DHT22;13826;51.186;4.450;2022-10-16T16:39:20;18.80;1.00
26053;DHT22;13826;51.186;4.450;2022-10-16T16:41:46;18.90;1.00
26053;DHT22;13826;51.186;4.450;2022-10-16T16:44:12;18.80;1.00
26053;DHT22;13826;51.186;4.450;2022-10-16T16:46:38;18.70;1.00
26053;DHT22;13826;51.186;4.450;2022-10-16T16:49:05;18.60;1.00
26053;DHT22;13826;51.186;4.450;2022-10-16T16:51:32;18.60;1.00
26053;DHT22;13826;51.186;4.450;2022-10-16T16:53:58;18.70;1.00
26053;DHT22;13826;51.186;4.450;2022-10-16T16:56:25;18.70;1.00
26053;DHT22;13826;51.186;4.450;2022-10-16T16:58:53;18.60;1.00
26053;DHT22;13826;51.186;4.450;2022-10-16T17:01:19;18.70;1.00
26053;DHT22;13826;51.186;4.450;2022-10-16T17:03:46;18.90;1.00
26053;DHT22;13826;51.186;4.450;2022-10-16T17:06:14;18.80;1.00
26053;DHT22;13826;51.186;4.450;2022-10-16T17:08:41;18.50;1.00
26053;DHT22;13826;51.186;4.450;2022-10-16T17:11:12;18.30;2.00
26053;DHT22;13826;51.186;4.450;2022-10-16T17:13:38;18.10;6.10
26053;DHT22;13826;51.186;4.450;2022-10-16T17:16:05;18.10;8.80
26053;DHT22;13826;51.186;4.450;2022-10-16T17:18:32;18.10;10.60
26053;DHT22;13826;51.186;4.450;2022-10-16T17:21:03;18.30;5.40
26053;DHT22;13826;51.186;4.450;2022-10-16T17:23:29;18.40;1.00
26053;DHT22;13826;51.186;4.450;2022-10-16T17:25:55;18.60;1.00
26053;DHT22;13826;51.186;4.450;2022-10-16T17:28:21;18.70;1.00
26053;DHT22;13826;51.186;4.450;2022-10-16T17:30:46;18.80;1.00
26053;DHT22;13826;51.186;4.450;2022-10-16T17:33:12;18.90;1.00
26053;DHT22;13826;51.186;4.450;2022-10-16T17:35:40;18.70;1.00
26053;DHT22;13826;51.186;4.450;2022-10-16T17:38:06;18.80;1.00